sensor_id;sensor_type;location;lat;lon;timestamp;temperature;humidity
8780;DHT22;62328;51.19929245;4.42130175;2023-02-20T00:00:15;8.00;99.90
8780;DHT22;62328;51.19929245;4.42130175;2023-02-20T00:02:43;8.00;99.90
8780;DHT22;62328;51.19929245;4.42130175;2023-02-20T00:05:11;8.00;99.90
8780;DHT22;62328;51.19929245;4.42130175;2023-02-20T00:07:38;8.00;99.90
8780;DHT22;62328;51.19929245;4.42130175;2023-02-20T00:10:06;7.90;99.90
8780;DHT22;62328;51.19929245;4.42130175;2023-02-20T00:12:34;7.90;99.90
8780;DHT22;62328;51.19929245;4.42130175;2023-02-20T00:15:01;7.90;99.90
8780;DHT22;62328;51.19929245;4.42130175;2023-02-20T00:17:29;7.90;99.90
8780;DHT22;62328;51.19929245;4.42130175;2023-02-20T00:19:55;7.90;99.90
8780;DHT22;62328;51.19929245;4.42130175;2023-02-20T00:22:23;7.90;99.90
8780;DHT22;62328;51.19929245;4.42130175;2023-02-20T00:24:50;7.80;99.90
8780;DHT22;62328;51.19929245;4.42130175;2023-02-20T00:27:17;7.80;99.90
8780;DHT22;62328;51.19929245;4.42130175;2023-02-20T00:29:46;7.80;99.90
8780;DHT22;62328;51.19929245;4.42130175;2023-02-20T00:32:15;7.80;99.90
8780;DHT22;62328;51.19929245;4.42130175;2023-02-20T00:34:42;7.80;99.90
8780;DHT22;62328;51.19929245;4.42130175;2023-02-20T00:37:08;7.80;99.90
8780;DHT22;62328;51.19929245;4.42130175;2023-02-20T00:39:35;7.80;99.90
8780;DHT22;62328;51.19929245;4.42130175;2023-02-20T00:42:02;7.80;99.90
8780;DHT22;62328;51.19929245;4.42130175;2023-02-20T00:44:29;7.80;99.90
8780;DHT22;62328;51.19929245;4.42130175;2023-02-20T00:46:57;7.80;99.90
8780;DHT22;62328;51.19929245;4.42130175;2023-02-20T00:49:24;7.70;99.90
8780;DHT22;62328;51.19929245;4.42130175;2023-02-20T00:51:53;7.60;99.90
8780;DHT22;62328;51.19929245;4.42130175;2023-02-20T00:54:19;7.70;99.90
8780;DHT22;62328;51.19929245;4.42130175;2023-02-20T00:56:46;7.70;99.90
8780;DHT22;62328;51.19929245;4.42130175;2023-02-20T00:59:13;7.60;99.90
8780;DHT22;62328;51.19929245;4.42130175;2023-02-20T01:01:40;7.70;99.90
8780;DHT22;62328;51.19929245;4.42130175;2023-02-20T01:04:08;7.70;99.90
8780;DHT22;62328;51.19929245;4.42130175;2023-02-20T01:06:35;7.70;99.90
8780;DHT22;62328;51.19929245;4.42130175;2023-02-20T01:09:02;7.70;99.90
8780;DHT22;62328;51.19929245;4.42130175;2023-02-20T01:11:29;7.70;99.90
8780;DHT22;62328;51.19929245;4.42130175;2023-02-20T01:13:55;7.70;99.90
8780;DHT22;62328;51.19929245;4.42130175;2023-02-20T01:16:22;7.80;99.90
8780;DHT22;62328;51.19929245;4.42130175;2023-02-20T01:18:50;7.80;99.90
8780;DHT22;62328;51.19929245;4.42130175;2023-02-20T01:21:18;7.80;99.90
8780;DHT22;62328;51.19929245;4.42130175;2023-02-20T01:23:45;7.80;99.90
8780;DHT22;62328;51.19929245;4.42130175;2023-02-20T01:26:12;7.80;99.90
8780;DHT22;62328;51.19929245;4.42130175;2023-02-20T01:28:38;7.70;99.90
8780;DHT22;62328;51.19929245;4.42130175;2023-02-20T01:31:08;7.70;99.90
8780;DHT22;62328;51.19929245;4.42130175;2023-02-20T01:33:35;7.80;99.90
8780;DHT22;62328;51.19929245;4.42130175;2023-02-20T01:36:02;7.80;99.90
8780;DHT22;62328;51.19929245;4.42130175;2023-02-20T01:38:30;7.50;99.90
8780;DHT22;62328;51.19929245;4.42130175;2023-02-20T01:40:57;7.80;99.90
8780;DHT22;62328;51.19929245;4.42130175;2023-02-20T01:43:24;7.80;99.90
8780;DHT22;62328;51.19929245;4.42130175;2023-02-20T01:45:50;7.80;99.90
8780;DHT22;62328;51.19929245;4.42130175;2023-02-20T01:48:22;7.80;99.90
8780;DHT22;62328;51.19929245;4.42130175;2023-02-20T01:50:50;7.80;99.90
8780;DHT22;62328;51.19929245;4.42130175;2023-02-20T01:53:20;7.80;99.90
8780;DHT22;62328;51.19929245;4.42130175;2023-02-20T01:55:51;7.90;99.90
8780;DHT22;62328;51.19929245;4.42130175;2023-02-20T01:58:21;7.90;99.90
8780;DHT22;62328;51.19929245;4.42130175;2023-02-20T02:00:49;7.90;99.90
8780;DHT22;62328;51.19929245;4.42130175;2023-02-20T02:03:19;7.90;99.90
8780;DHT22;62328;51.19929245;4.42130175;2023-02-20T02:05:50;7.90;99.90
8780;DHT22;62328;51.19929245;4.42130175;2023-02-20T02:08:19;7.90;99.90
8780;DHT22;62328;51.19929245;4.42130175;2023-02-20T02:10:53;7.90;99.90
8780;DHT22;62328;51.19929245;4.42130175;2023-02-20T02:13:22;7.90;99.90
8780;DHT22;62328;51.19929245;4.42130175;2023-02-20T02:15:50;7.90;99.90
8780;DHT22;62328;51.19929245;4.42130175;2023-02-20T02:18:37;8.00;99.90
8780;DHT22;62328;51.19929245;4.42130175;2023-02-20T02:31:08;8.10;99.90
8780;DHT22;62328;51.19929245;4.42130175;2023-02-20T02:33:57;8.10;99.90
8780;DHT22;62328;51.19929245;4.42130175;2023-02-20T02:36:38;8.10;99.90
8780;DHT22;62328;51.19929245;4.42130175;2023-02-20T02:39:15;8.00;99.90
8780;DHT22;62328;51.19929245;4.42130175;2023-02-20T02:41:46;8.00;99.90
8780;DHT22;62328;51.19929245;4.42130175;2023-02-20T02:44:18;8.00;99.90
8780;DHT22;62328;51.19929245;4.42130175;2023-02-20T02:46:54;8.10;99.90
8780;DHT22;62328;51.19929245;4.42130175;2023-02-20T02:49:26;8.00;99.90
8780;DHT22;62328;51.19929245;4.42130175;2023-02-20T02:51:57;8.00;99.90
8780;DHT22;62328;51.19929245;4.42130175;2023-02-20T02:54:27;8.00;99.90
8780;DHT22;62328;51.19929245;4.42130175;2023-02-20T02:57:22;8.00;99.90
8780;DHT22;62328;51.19929245;4.42130175;2023-02-20T02:59:53;8.00;99.90
8780;DHT22;62328;51.19929245;4.42130175;2023-02-20T03:02:22;7.90;99.90
8780;DHT22;62328;51.19929245;4.42130175;2023-02-20T03:04:51;7.90;99.90
8780;DHT22;62328;51.19929245;4.42130175;2023-02-20T03:07:21;7.90;99.90
8780;DHT22;62328;51.19929245;4.42130175;2023-02-20T03:09:51;8.00;99.90
8780;DHT22;62328;51.19929245;4.42130175;2023-02-20T03:12:19;8.00;99.90
8780;DHT22;62328;51.19929245;4.42130175;2023-02-20T03:14:53;8.00;99.90
8780;DHT22;62328;51.19929245;4.42130175;2023-02-20T03:17:44;8.00;99.90
8780;DHT22;62328;51.19929245;4.42130175;2023-02-20T03:20:17;8.00;99.90
8780;DHT22;62328;51.19929245;4.42130175;2023-02-20T03:22:51;8.00;99.90
8780;DHT22;62328;51.19929245;4.42130175;2023-02-20T03:25:22;8.00;99.90
8780;DHT22;62328;51.19929245;4.42130175;2023-02-20T03:27:54;8.00;99.90
8780;DHT22;62328;51.19929245;4.42130175;2023-02-20T03:30:28;8.00;99.90
8780;DHT22;62328;51.19929245;4.42130175;2023-02-20T03:33:00;8.10;99.90
8780;DHT22;62328;51.19929245;4.42130175;2023-02-20T03:35:47;8.10;99.90
8780;DHT22;62328;51.19929245;4.42130175;2023-02-20T03:38:36;8.10;99.90
8780;DHT22;62328;51.19929245;4.42130175;2023-02-20T03:41:24;8.10;99.90
8780;DHT22;62328;51.19929245;4.42130175;2023-02-20T03:44:12;8.10;99.90
8780;DHT22;62328;51.19929245;4.42130175;2023-02-20T03:46:40;8.10;99.90
8780;DHT22;62328;51.19929245;4.42130175;2023-02-20T03:49:11;8.10;99.90
8780;DHT22;62328;51.19929245;4.42130175;2023-02-20T03:51:39;8.00;99.90
8780;DHT22;62328;51.19929245;4.42130175;2023-02-20T03:54:07;8.10;99.90
8780;DHT22;62328;51.19929245;4.42130175;2023-02-20T03:56:38;8.10;99.90
8780;DHT22;62328;51.19929245;4.42130175;2023-02-20T03:59:12;8.10;99.90
8780;DHT22;62328;51.19929245;4.42130175;2023-02-20T04:01:41;8.10;99.90
8780;DHT22;62328;51.19929245;4.42130175;2023-02-20T04:04:12;8.10;99.90
8780;DHT22;62328;51.19929245;4.42130175;2023-02-20T04:06:41;8.10;99.90
8780;DHT22;62328;51.19929245;4.42130175;2023-02-20T04:09:13;8.20;99.90
8780;DHT22;62328;51.19929245;4.42130175;2023-02-20T04:11:45;8.20;99.90
8780;DHT22;62328;51.19929245;4.42130175;2023-02-20T04:14:14;8.20;99.90
8780;DHT22;62328;51.19929245;4.42130175;2023-02-20T04:16:46;8.30;99.90
8780;DHT22;62328;51.19929245;4.42130175;2023-02-20T04:19:14;8.30;99.90
8780;DHT22;62328;51.19929245;4.42130175;2023-02-20T04:21:44;8.40;99.90
8780;DHT22;62328;51.19929245;4.42130175;2023-02-20T04:24:18;8.40;99.90
8780;DHT22;62328;51.19929245;4.42130175;2023-02-20T04:26:46;8.40;99.90
8780;DHT22;62328;51.19929245;4.42130175;2023-02-20T04:29:13;8.40;99.90
8780;DHT22;62328;51.19929245;4.42130175;2023-02-20T04:31:40;8.50;99.90
8780;DHT22;62328;51.19929245;4.42130175;2023-02-20T04:34:06;8.50;99.90
8780;DHT22;62328;51.19929245;4.42130175;2023-02-20T04:36:33;8.40;99.90
8780;DHT22;62328;51.19929245;4.42130175;2023-02-20T04:39:00;8.40;99.90
8780;DHT22;62328;51.19929245;4.42130175;2023-02-20T04:41:28;8.40;99.90
8780;DHT22;62328;51.19929245;4.42130175;2023-02-20T04:43:55;8.40;99.90
8780;DHT22;62328;51.19929245;4.42130175;2023-02-20T04:46:35;8.40;99.90
8780;DHT22;62328;51.19929245;4.42130175;2023-02-20T04:49:02;8.50;99.90
8780;DHT22;62328;51.19929245;4.42130175;2023-02-20T04:51:29;8.40;99.90
8780;DHT22;62328;51.19929245;4.42130175;2023-02-20T04:53:57;8.40;99.90
8780;DHT22;62328;51.19929245;4.42130175;2023-02-20T04:56:23;8.40;99.90
8780;DHT22;62328;51.19929245;4.42130175;2023-02-20T04:58:53;8.40;99.90
8780;DHT22;62328;51.19929245;4.42130175;2023-02-20T05:01:19;8.40;99.90
8780;DHT22;62328;51.19929245;4.42130175;2023-02-20T05:03:46;8.40;99.90
8780;DHT22;62328;51.19929245;4.42130175;2023-02-20T05:06:13;8.40;99.90
8780;DHT22;62328;51.19929245;4.42130175;2023-02-20T05:08:40;8.40;99.90
8780;DHT22;62328;51.19929245;4.42130175;2023-02-20T05:11:07;8.40;99.90
8780;DHT22;62328;51.19929245;4.42130175;2023-02-20T05:13:34;8.40;99.90
8780;DHT22;62328;51.19929245;4.42130175;2023-02-20T05:16:02;8.40;99.90
8780;DHT22;62328;51.19929245;4.42130175;2023-02-20T05:18:29;8.50;99.90
8780;DHT22;62328;51.19929245;4.42130175;2023-02-20T05:20:56;8.50;99.90
8780;DHT22;62328;51.19929245;4.42130175;2023-02-20T05:23:41;8.40;99.90
8780;DHT22;62328;51.19929245;4.42130175;2023-02-20T05:26:08;8.50;99.90
8780;DHT22;62328;51.19929245;4.42130175;2023-02-20T05:28:35;8.50;99.90
8780;DHT22;62328;51.19929245;4.42130175;2023-02-20T05:31:04;8.50;99.90
8780;DHT22;62328;51.19929245;4.42130175;2023-02-20T05:33:31;8.40;99.90
8780;DHT22;62328;51.19929245;4.42130175;2023-02-20T05:35:59;8.40;99.90
8780;DHT22;62328;51.19929245;4.42130175;2023-02-20T05:38:25;8.40;99.90
8780;DHT22;62328;51.19929245;4.42130175;2023-02-20T05:40:52;8.40;99.90
8780;DHT22;62328;51.19929245;4.42130175;2023-02-20T05:43:19;8.40;99.90
8780;DHT22;62328;51.19929245;4.42130175;2023-02-20T05:45:46;8.40;99.90
8780;DHT22;62328;51.19929245;4.42130175;2023-02-20T05:48:14;8.40;99.90
8780;DHT22;62328;51.19929245;4.42130175;2023-02-20T05:50:43;8.40;99.90
8780;DHT22;62328;51.19929245;4.42130175;2023-02-20T05:53:10;8.40;99.90
8780;DHT22;62328;51.19929245;4.42130175;2023-02-20T05:55:37;8.50;99.90
8780;DHT22;62328;51.19929245;4.42130175;2023-02-20T05:58:04;8.40;99.90
8780;DHT22;62328;51.19929245;4.42130175;2023-02-20T06:00:30;8.40;99.90
8780;DHT22;62328;51.19929245;4.42130175;2023-02-20T06:02:57;8.40;99.90
8780;DHT22;62328;51.19929245;4.42130175;2023-02-20T06:05:25;8.40;99.90
8780;DHT22;62328;51.19929245;4.42130175;2023-02-20T06:07:52;8.50;99.90
8780;DHT22;62328;51.19929245;4.42130175;2023-02-20T06:10:19;8.40;99.90
8780;DHT22;62328;51.19929245;4.42130175;2023-02-20T06:12:46;8.40;99.90
8780;DHT22;62328;51.19929245;4.42130175;2023-02-20T06:15:13;8.40;99.90
8780;DHT22;62328;51.19929245;4.42130175;2023-02-20T06:17:41;8.40;99.90
8780;DHT22;62328;51.19929245;4.42130175;2023-02-20T06:20:08;8.50;99.90
8780;DHT22;62328;51.19929245;4.42130175;2023-02-20T06:22:36;8.40;99.90
8780;DHT22;62328;51.19929245;4.42130175;2023-02-20T06:25:03;8.40;99.90
8780;DHT22;62328;51.19929245;4.42130175;2023-02-20T06:27:30;8.40;99.90
8780;DHT22;62328;51.19929245;4.42130175;2023-02-20T06:29:57;8.50;99.90
8780;DHT22;62328;51.19929245;4.42130175;2023-02-20T06:32:25;8.50;99.90
8780;DHT22;62328;51.19929245;4.42130175;2023-02-20T06:34:53;8.50;99.90
8780;DHT22;62328;51.19929245;4.42130175;2023-02-20T06:37:20;8.50;99.90
8780;DHT22;62328;51.19929245;4.42130175;2023-02-20T06:39:48;8.50;99.90
8780;DHT22;62328;51.19929245;4.42130175;2023-02-20T06:42:15;8.40;99.90
8780;DHT22;62328;51.19929245;4.42130175;2023-02-20T06:44:42;8.40;99.90
8780;DHT22;62328;51.19929245;4.42130175;2023-02-20T06:47:09;8.40;99.90
8780;DHT22;62328;51.19929245;4.42130175;2023-02-20T06:49:36;8.50;99.90
8780;DHT22;62328;51.19929245;4.42130175;2023-02-20T06:52:04;8.50;99.90
8780;DHT22;62328;51.19929245;4.42130175;2023-02-20T06:54:31;8.50;99.90
8780;DHT22;62328;51.19929245;4.42130175;2023-02-20T06:57:00;8.50;99.90
8780;DHT22;62328;51.19929245;4.42130175;2023-02-20T06:59:27;8.40;99.90
8780;DHT22;62328;51.19929245;4.42130175;2023-02-20T07:01:54;8.40;99.90
8780;DHT22;62328;51.19929245;4.42130175;2023-02-20T07:04:24;8.50;99.90
8780;DHT22;62328;51.19929245;4.42130175;2023-02-20T07:06:51;8.50;99.90
8780;DHT22;62328;51.19929245;4.42130175;2023-02-20T07:09:18;8.50;99.90
8780;DHT22;62328;51.19929245;4.42130175;2023-02-20T07:11:46;8.50;99.90
8780;DHT22;62328;51.19929245;4.42130175;2023-02-20T07:14:14;8.50;99.90
8780;DHT22;62328;51.19929245;4.42130175;2023-02-20T07:16:41;8.60;99.90
8780;DHT22;62328;51.19929245;4.42130175;2023-02-20T07:19:08;8.50;99.90
8780;DHT22;62328;51.19929245;4.42130175;2023-02-20T07:21:35;8.50;99.90
8780;DHT22;62328;51.19929245;4.42130175;2023-02-20T07:24:02;8.50;99.90
8780;DHT22;62328;51.19929245;4.42130175;2023-02-20T07:26:30;8.50;99.90
8780;DHT22;62328;51.19929245;4.42130175;2023-02-20T07:28:57;8.60;99.90
8780;DHT22;62328;51.19929245;4.42130175;2023-02-20T07:31:26;8.60;99.90
8780;DHT22;62328;51.19929245;4.42130175;2023-02-20T07:33:53;8.60;99.90
8780;DHT22;62328;51.19929245;4.42130175;2023-02-20T07:36:20;8.60;99.90
8780;DHT22;62328;51.19929245;4.42130175;2023-02-20T07:38:53;8.60;99.90
8780;DHT22;62328;51.19929245;4.42130175;2023-02-20T07:41:20;8.60;99.90
8780;DHT22;62328;51.19929245;4.42130175;2023-02-20T07:43:47;8.70;99.90
8780;DHT22;62328;51.19929245;4.42130175;2023-02-20T07:46:14;8.70;99.90
8780;DHT22;62328;51.19929245;4.42130175;2023-02-20T07:48:42;8.70;99.90
8780;DHT22;62328;51.19929245;4.42130175;2023-02-20T07:51:09;8.70;99.90
8780;DHT22;62328;51.19929245;4.42130175;2023-02-20T07:53:36;8.70;99.90
8780;DHT22;62328;51.19929245;4.42130175;2023-02-20T07:56:04;8.80;99.90
8780;DHT22;62328;51.19929245;4.42130175;2023-02-20T07:58:31;8.80;99.90
8780;DHT22;62328;51.19929245;4.42130175;2023-02-20T08:00:58;8.70;99.90
8780;DHT22;62328;51.19929245;4.42130175;2023-02-20T08:03:24;8.80;99.90
8780;DHT22;62328;51.19929245;4.42130175;2023-02-20T08:05:53;8.80;99.90
8780;DHT22;62328;51.19929245;4.42130175;2023-02-20T08:08:19;8.80;99.90
8780;DHT22;62328;51.19929245;4.42130175;2023-02-20T08:10:49;8.80;99.90
8780;DHT22;62328;51.19929245;4.42130175;2023-02-20T08:13:16;8.90;99.90
8780;DHT22;62328;51.19929245;4.42130175;2023-02-20T08:15:43;8.80;99.90
8780;DHT22;62328;51.19929245;4.42130175;2023-02-20T08:18:10;8.80;99.90
8780;DHT22;62328;51.19929245;4.42130175;2023-02-20T08:20:37;8.80;99.90
8780;DHT22;62328;51.19929245;4.42130175;2023-02-20T08:23:12;8.90;99.90
8780;DHT22;62328;51.19929245;4.42130175;2023-02-20T08:25:39;8.90;99.90
8780;DHT22;62328;51.19929245;4.42130175;2023-02-20T08:28:06;8.80;99.90
8780;DHT22;62328;51.19929245;4.42130175;2023-02-20T08:30:32;8.90;99.90
8780;DHT22;62328;51.19929245;4.42130175;2023-02-20T08:32:59;8.90;99.90
8780;DHT22;62328;51.19929245;4.42130175;2023-02-20T08:35:30;8.90;99.90
8780;DHT22;62328;51.19929245;4.42130175;2023-02-20T08:37:59;8.90;99.90
8780;DHT22;62328;51.19929245;4.42130175;2023-02-20T08:40:27;8.90;99.90
8780;DHT22;62328;51.19929245;4.42130175;2023-02-20T08:42:54;8.90;99.90
8780;DHT22;62328;51.19929245;4.42130175;2023-02-20T08:45:21;8.90;99.90
8780;DHT22;62328;51.19929245;4.42130175;2023-02-20T08:47:49;9.00;99.90
8780;DHT22;62328;51.19929245;4.42130175;2023-02-20T08:50:16;9.00;99.90
8780;DHT22;62328;51.19929245;4.42130175;2023-02-20T08:52:44;9.10;99.90
8780;DHT22;62328;51.19929245;4.42130175;2023-02-20T08:55:11;9.10;99.90
8780;DHT22;62328;51.19929245;4.42130175;2023-02-20T08:57:42;9.10;99.90
8780;DHT22;62328;51.19929245;4.42130175;2023-02-20T09:00:12;9.20;99.90
8780;DHT22;62328;51.19929245;4.42130175;2023-02-20T09:02:39;9.10;99.90
8780;DHT22;62328;51.19929245;4.42130175;2023-02-20T09:05:07;9.10;99.90
8780;DHT22;62328;51.19929245;4.42130175;2023-02-20T09:07:34;9.10;99.90
8780;DHT22;62328;51.19929245;4.42130175;2023-02-20T09:10:02;9.10;99.90
8780;DHT22;62328;51.19929245;4.42130175;2023-02-20T09:12:30;9.10;99.90
8780;DHT22;62328;51.19929245;4.42130175;2023-02-20T09:14:58;9.10;99.90
8780;DHT22;62328;51.19929245;4.42130175;2023-02-20T09:17:25;9.10;99.90
8780;DHT22;62328;51.19929245;4.42130175;2023-02-20T09:19:52;9.10;99.90
8780;DHT22;62328;51.19929245;4.42130175;2023-02-20T09:22:21;9.10;99.90
8780;DHT22;62328;51.19929245;4.42130175;2023-02-20T09:24:49;9.20;99.90
8780;DHT22;62328;51.19929245;4.42130175;2023-02-20T09:27:15;9.10;99.90
8780;DHT22;62328;51.19929245;4.42130175;2023-02-20T09:29:42;9.10;99.90
8780;DHT22;62328;51.19929245;4.42130175;2023-02-20T09:32:11;9.20;99.90
8780;DHT22;62328;51.19929245;4.42130175;2023-02-20T09:34:37;9.20;99.90
8780;DHT22;62328;51.19929245;4.42130175;2023-02-20T09:37:04;9.20;99.90
8780;DHT22;62328;51.19929245;4.42130175;2023-02-20T09:39:33;9.10;99.90
8780;DHT22;62328;51.19929245;4.42130175;2023-02-20T09:42:08;9.20;99.90
8780;DHT22;62328;51.19929245;4.42130175;2023-02-20T09:44:48;9.20;99.90
8780;DHT22;62328;51.19929245;4.42130175;2023-02-20T09:47:37;9.20;99.90
8780;DHT22;62328;51.19929245;4.42130175;2023-02-20T09:50:13;9.20;99.90
8780;DHT22;62328;51.19929245;4.42130175;2023-02-20T09:52:42;9.20;99.90
8780;DHT22;62328;51.19929245;4.42130175;2023-02-20T09:55:13;9.30;99.90
8780;DHT22;62328;51.19929245;4.42130175;2023-02-20T09:57:46;9.20;99.90
8780;DHT22;62328;51.19929245;4.42130175;2023-02-20T10:00:20;9.30;99.90
8780;DHT22;62328;51.19929245;4.42130175;2023-02-20T10:02:56;9.30;99.90
8780;DHT22;62328;51.19929245;4.42130175;2023-02-20T10:05:27;9.30;99.90
8780;DHT22;62328;51.19929245;4.42130175;2023-02-20T10:07:55;9.30;99.90
8780;DHT22;62328;51.19929245;4.42130175;2023-02-20T10:10:23;9.30;99.90
8780;DHT22;62328;51.19929245;4.42130175;2023-02-20T10:12:59;9.30;99.90
8780;DHT22;62328;51.19929245;4.42130175;2023-02-20T10:15:33;9.30;99.90
8780;DHT22;62328;51.19929245;4.42130175;2023-02-20T10:18:15;9.30;99.90
8780;DHT22;62328;51.19929245;4.42130175;2023-02-20T10:20:49;9.40;99.90
8780;DHT22;62328;51.19929245;4.42130175;2023-02-20T10:23:21;9.40;99.90
8780;DHT22;62328;51.19929245;4.42130175;2023-02-20T10:25:57;9.50;99.90
8780;DHT22;62328;51.19929245;4.42130175;2023-02-20T10:28:26;9.50;99.90
8780;DHT22;62328;51.19929245;4.42130175;2023-02-20T10:30:57;9.50;99.90
8780;DHT22;62328;51.19929245;4.42130175;2023-02-20T10:33:32;9.50;99.90
8780;DHT22;62328;51.19929245;4.42130175;2023-02-20T10:36:07;9.50;99.90
8780;DHT22;62328;51.19929245;4.42130175;2023-02-20T10:38:42;9.50;99.90
8780;DHT22;62328;51.19929245;4.42130175;2023-02-20T10:41:17;9.50;99.90
8780;DHT22;62328;51.19929245;4.42130175;2023-02-20T10:43:49;9.60;99.90
8780;DHT22;62328;51.19929245;4.42130175;2023-02-20T10:46:22;9.60;99.90
8780;DHT22;62328;51.19929245;4.42130175;2023-02-20T10:48:56;9.60;99.90
8780;DHT22;62328;51.19929245;4.42130175;2023-02-20T10:51:26;9.50;99.90
8780;DHT22;62328;51.19929245;4.42130175;2023-02-20T10:54:00;9.60;99.90
8780;DHT22;62328;51.19929245;4.42130175;2023-02-20T10:56:32;9.60;99.90
8780;DHT22;62328;51.19929245;4.42130175;2023-02-20T10:59:03;9.60;99.90
8780;DHT22;62328;51.19929245;4.42130175;2023-02-20T11:01:34;9.60;99.90
8780;DHT22;62328;51.19929245;4.42130175;2023-02-20T11:04:08;9.60;99.90
8780;DHT22;62328;51.19929245;4.42130175;2023-02-20T11:06:38;9.70;99.90
8780;DHT22;62328;51.19929245;4.42130175;2023-02-20T11:09:05;9.70;99.90
8780;DHT22;62328;51.19929245;4.42130175;2023-02-20T11:11:37;9.70;99.90
8780;DHT22;62328;51.19929245;4.42130175;2023-02-20T11:14:11;9.70;99.90
8780;DHT22;62328;51.19929245;4.42130175;2023-02-20T11:16:44;9.80;99.90
8780;DHT22;62328;51.19929245;4.42130175;2023-02-20T11:19:17;9.80;99.90
8780;DHT22;62328;51.19929245;4.42130175;2023-02-20T11:21:47;9.80;99.90
8780;DHT22;62328;51.19929245;4.42130175;2023-02-20T11:24:31;9.80;99.90
8780;DHT22;62328;51.19929245;4.42130175;2023-02-20T11:27:08;9.80;99.90
8780;DHT22;62328;51.19929245;4.42130175;2023-02-20T11:29:48;9.70;99.90
8780;DHT22;62328;51.19929245;4.42130175;2023-02-20T11:32:27;9.80;99.90
8780;DHT22;62328;51.19929245;4.42130175;2023-02-20T11:38:35;9.80;99.90
8780;DHT22;62328;51.19929245;4.42130175;2023-02-20T11:44:21;9.80;99.90
8780;DHT22;62328;51.19929245;4.42130175;2023-02-20T11:47:15;9.90;99.90
8780;DHT22;62328;51.19929245;4.42130175;2023-02-20T11:49:42;9.90;99.90
8780;DHT22;62328;51.19929245;4.42130175;2023-02-20T11:52:15;9.90;99.90
8780;DHT22;62328;51.19929245;4.42130175;2023-02-20T11:54:44;9.90;99.90
8780;DHT22;62328;51.19929245;4.42130175;2023-02-20T11:57:21;9.90;99.90
8780;DHT22;62328;51.19929245;4.42130175;2023-02-20T11:59:51;9.90;99.90
8780;DHT22;62328;51.19929245;4.42130175;2023-02-20T12:02:25;9.90;99.90
8780;DHT22;62328;51.19929245;4.42130175;2023-02-20T12:05:09;9.90;99.90
8780;DHT22;62328;51.19929245;4.42130175;2023-02-20T12:07:39;9.90;99.90
8780;DHT22;62328;51.19929245;4.42130175;2023-02-20T12:10:27;9.90;99.90
8780;DHT22;62328;51.19929245;4.42130175;2023-02-20T12:12:55;9.90;99.90
8780;DHT22;62328;51.19929245;4.42130175;2023-02-20T12:15:24;9.90;99.90
8780;DHT22;62328;51.19929245;4.42130175;2023-02-20T12:18:30;10.00;99.90
8780;DHT22;62328;51.19929245;4.42130175;2023-02-20T12:21:07;10.00;99.90
8780;DHT22;62328;51.19929245;4.42130175;2023-02-20T12:23:45;10.00;99.90
8780;DHT22;62328;51.19929245;4.42130175;2023-02-20T12:26:26;10.00;99.90
8780;DHT22;62328;51.19929245;4.42130175;2023-02-20T12:29:04;10.00;99.90
8780;DHT22;62328;51.19929245;4.42130175;2023-02-20T12:31:41;9.90;99.90
8780;DHT22;62328;51.19929245;4.42130175;2023-02-20T12:34:29;9.90;99.90
8780;DHT22;62328;51.19929245;4.42130175;2023-02-20T12:37:07;10.00;99.90
8780;DHT22;62328;51.19929245;4.42130175;2023-02-20T12:39:44;10.10;99.90
8780;DHT22;62328;51.19929245;4.42130175;2023-02-20T12:42:22;10.10;99.90
8780;DHT22;62328;51.19929245;4.42130175;2023-02-20T12:45:17;10.10;99.90
8780;DHT22;62328;51.19929245;4.42130175;2023-02-20T12:47:44;10.10;99.90
8780;DHT22;62328;51.19929245;4.42130175;2023-02-20T12:50:34;10.10;99.90
8780;DHT22;62328;51.19929245;4.42130175;2023-02-20T12:53:23;10.00;99.90
8780;DHT22;62328;51.19929245;4.42130175;2023-02-20T12:56:02;10.00;99.90
8780;DHT22;62328;51.19929245;4.42130175;2023-02-20T12:58:41;10.00;99.90
8780;DHT22;62328;51.19929245;4.42130175;2023-02-20T13:01:12;10.00;99.90
8780;DHT22;62328;51.19929245;4.42130175;2023-02-20T13:03:45;10.00;99.90
8780;DHT22;62328;51.19929245;4.42130175;2023-02-20T13:06:21;10.10;99.90
8780;DHT22;62328;51.19929245;4.42130175;2023-02-20T13:08:58;10.10;99.90
8780;DHT22;62328;51.19929245;4.42130175;2023-02-20T13:11:32;10.10;99.90
8780;DHT22;62328;51.19929245;4.42130175;2023-02-20T13:14:07;10.20;99.90
8780;DHT22;62328;51.19929245;4.42130175;2023-02-20T13:16:39;10.20;99.90
8780;DHT22;62328;51.19929245;4.42130175;2023-02-20T13:19:18;10.30;99.90
8780;DHT22;62328;51.19929245;4.42130175;2023-02-20T13:21:47;10.20;99.90
8780;DHT22;62328;51.19929245;4.42130175;2023-02-20T13:24:31;10.20;99.90
8780;DHT22;62328;51.19929245;4.42130175;2023-02-20T13:27:00;10.20;99.90
8780;DHT22;62328;51.19929245;4.42130175;2023-02-20T13:29:34;10.20;99.90
8780;DHT22;62328;51.19929245;4.42130175;2023-02-20T13:32:20;10.20;99.90
8780;DHT22;62328;51.19929245;4.42130175;2023-02-20T13:34:47;10.30;99.90
8780;DHT22;62328;51.19929245;4.42130175;2023-02-20T13:37:49;10.30;99.90
8780;DHT22;62328;51.19929245;4.42130175;2023-02-20T13:40:38;10.20;99.90
8780;DHT22;62328;51.19929245;4.42130175;2023-02-20T13:43:24;10.20;99.90
8780;DHT22;62328;51.19929245;4.42130175;2023-02-20T13:46:11;10.30;99.90
8780;DHT22;62328;51.19929245;4.42130175;2023-02-20T13:48:43;10.30;99.90
8780;DHT22;62328;51.19929245;4.42130175;2023-02-20T13:51:33;10.30;99.90
8780;DHT22;62328;51.19929245;4.42130175;2023-02-20T13:56:59;10.40;99.90
8780;DHT22;62328;51.19929245;4.42130175;2023-02-20T13:59:30;10.40;99.90
8780;DHT22;62328;51.19929245;4.42130175;2023-02-20T14:02:18;10.40;99.90
8780;DHT22;62328;51.19929245;4.42130175;2023-02-20T14:04:57;10.40;99.90
8780;DHT22;62328;51.19929245;4.42130175;2023-02-20T14:07:32;10.40;99.90
8780;DHT22;62328;51.19929245;4.42130175;2023-02-20T14:10:05;10.40;99.90
8780;DHT22;62328;51.19929245;4.42130175;2023-02-20T14:12:33;10.40;99.90
8780;DHT22;62328;51.19929245;4.42130175;2023-02-20T14:15:04;10.40;99.90
8780;DHT22;62328;51.19929245;4.42130175;2023-02-20T14:17:33;10.40;99.90
8780;DHT22;62328;51.19929245;4.42130175;2023-02-20T14:20:01;10.40;99.90
8780;DHT22;62328;51.19929245;4.42130175;2023-02-20T14:22:31;10.40;99.90
8780;DHT22;62328;51.19929245;4.42130175;2023-02-20T14:25:17;10.40;99.90